Flat Springs, North Carolina
Current Conditions -  °F | °C
As of 7:15 PM on Monday 20 Oct 2014 (Local Time) from KTNB Reporting Station
Scattered Clouds Scattered Clouds  
Wind Chill: 54°   Ceiling: Unl
Heat Index: 54°   Visibility: 10mi
Dew Point: 45°   Wind: 0mph
Humidity: 71%   Direction: NA
Pressure: 30.02"   Gusts: NA
Location:  36.1731°N, 81.9572°W
Report Text: KTNB 202315Z AUTO 00000KT 10SM SCT080 12/07 A3002 RMK AO2 T01240073
Loading
Personal Weather Stations






























Interactive Weather Map
Tropical Storm Tracking
New forecast layout! Learn more

10-Day Weather Forecast

Advertisements
Track Severe Weather on mobile